Time,TemperatureF,DewpointF,PressureIn,WindDirection,WindDirectionDegrees,WindSpeedMPH,WindSpeedGustMPH,Humidity,HourlyPrecipIn,Conditions,Clouds,dailyrainin,SoftwareType,DateUTC
2013-09-25 00:05:00,74.3,74.0,29.63,SSW,202,2.7,-999.0,99,-99.99,,,0.00,Acu-Link.com,2013-09-25 04:05:00,
2013-09-25 00:21:00,74.1,73.8,29.63,NNE,22,1.7,-999.0,99,-99.99,,,0.00,Acu-Link.com,2013-09-25 04:21:00,
2013-09-25 00:36:00,74.1,73.8,29.63,West,270,2.2,-999.0,99,-99.99,,,0.00,Acu-Link.com,2013-09-25 04:36:00,
2013-09-25 00:51:00,74.3,74.0,29.63,SSW,202,1.7,-999.0,99,-99.99,,,0.00,Acu-Link.com,2013-09-25 04:51:00,
2013-09-25 01:06:00,74.3,74.0,29.62,SSW,202,1.7,-999.0,99,-99.99,,,0.00,Acu-Link.com,2013-09-25 05:06:00,
2013-09-25 01:21:00,74.1,73.8,29.62,WNW,292,1.1,-999.0,99,-99.99,,,0.00,Acu-Link.com,2013-09-25 05:21:00,
2013-09-25 01:37:00,74.5,74.2,29.62,SSE,157,1.7,-999.0,99,-99.99,,,0.00,Acu-Link.com,2013-09-25 05:37:00,
2013-09-25 01:52:00,74.7,74.4,29.61,South,180,1.7,-999.0,99,-99.99,,,0.00,Acu-Link.com,2013-09-25 05:52:00,
2013-09-25 02:07:00,74.7,74.4,29.60,West,270,1.1,-999.0,99,-99.99,,,0.00,Acu-Link.com,2013-09-25 06:07:00,
2013-09-25 02:22:00,74.8,74.5,29.61,ESE,112,1.7,-999.0,99,-99.99,,,0.00,Acu-Link.com,2013-09-25 06:22:00,
2013-09-25 02:37:00,75.0,74.7,29.61,South,180,1.1,-999.0,99,-99.99,,,0.00,Acu-Link.com,2013-09-25 06:37:00,
2013-09-25 02:53:00,75.0,74.7,29.60,SSE,157,2.2,-999.0,99,-99.99,,,0.00,Acu-Link.com,2013-09-25 06:53:00,
2013-09-25 03:08:00,75.0,74.7,29.60,SW,225,2.2,-999.0,99,-99.99,,,0.00,Acu-Link.com,2013-09-25 07:08:00,
2013-09-25 03:23:00,75.0,74.7,29.60,SE,135,2.2,-999.0,99,-99.99,,,0.00,Acu-Link.com,2013-09-25 07:23:00,
2013-09-25 03:38:00,75.2,74.9,29.60,West,270,1.7,-999.0,99,-99.99,,,0.00,Acu-Link.com,2013-09-25 07:38:00,
2013-09-25 03:53:00,75.2,74.9,29.60,WNW,292,3.7,-999.0,99,-99.99,,,0.00,Acu-Link.com,2013-09-25 07:53:00,
2013-09-25 04:09:00,75.6,75.3,29.60,WSW,247,0.0,-999.0,99,-99.99,,,0.00,Acu-Link.com,2013-09-25 08:09:00,
2013-09-25 04:24:00,75.6,75.3,29.60,WSW,247,3.2,-999.0,99,-99.99,,,0.00,Acu-Link.com,2013-09-25 08:24:00,
2013-09-25 04:39:00,75.7,75.4,29.59,West,270,0.0,-999.0,99,-99.99,,,0.00,Acu-Link.com,2013-09-25 08:39:00,
2013-09-25 04:55:00,75.7,75.4,29.59,SW,225,0.0,-999.0,99,-99.99,,,0.00,Acu-Link.com,2013-09-25 08:55:00,
2013-09-25 05:10:00,75.7,75.4,29.58,West,270,0.0,-999.0,99,-99.99,,,0.00,Acu-Link.com,2013-09-25 09:10:00,
2013-09-25 05:27:00,75.9,75.6,29.57,ESE,112,1.7,-999.0,99,-99.99,,,0.00,Acu-Link.com,2013-09-25 09:27:00,
2013-09-25 05:42:00,75.7,75.4,29.57,SW,225,0.0,-999.0,99,-99.99,,,0.00,Acu-Link.com,2013-09-25 09:42:00,
2013-09-25 05:57:00,75.2,74.9,29.59,West,270,1.7,-999.0,99,-99.99,,,0.01,Acu-Link.com,2013-09-25 09:57:00,
2013-09-25 06:12:00,74.3,74.0,29.60,SSW,202,4.7,-999.0,99,-99.99,,,0.01,Acu-Link.com,2013-09-25 10:12:00,
2013-09-25 06:27:00,74.3,74.0,29.59,SW,225,4.2,-999.0,99,-99.99,,,0.01,Acu-Link.com,2013-09-25 10:27:00,
2013-09-25 06:43:00,74.1,73.8,29.60,West,270,2.7,-999.0,99,-99.99,,,0.01,Acu-Link.com,2013-09-25 10:43:00,
2013-09-25 06:59:00,73.9,73.6,29.60,West,270,6.3,-999.0,99,-99.99,,,0.01,Acu-Link.com,2013-09-25 10:59:00,
2013-09-25 07:15:00,73.8,73.5,29.61,West,270,3.7,-999.0,99,-99.99,,,0.02,Acu-Link.com,2013-09-25 11:15:00,
2013-09-25 07:30:00,73.8,73.5,29.62,West,270,6.3,-999.0,99,-99.99,,,0.02,Acu-Link.com,2013-09-25 11:30:00,
2013-09-25 07:45:00,73.9,73.6,29.62,West,270,4.2,-999.0,99,-99.99,,,0.02,Acu-Link.com,2013-09-25 11:45:00,
2013-09-25 08:01:00,73.8,73.5,29.62,West,270,5.3,-999.0,99,-99.99,,,0.02,Acu-Link.com,2013-09-25 12:01:00,
2013-09-25 08:16:00,73.8,73.5,29.63,NW,315,6.8,-999.0,99,-99.99,,,0.02,Acu-Link.com,2013-09-25 12:16:00,
2013-09-25 08:31:00,73.8,73.5,29.64,West,270,5.8,-999.0,99,-99.99,,,0.03,Acu-Link.com,2013-09-25 12:31:00,
2013-09-25 08:46:00,74.1,73.8,29.65,SW,225,4.2,-999.0,99,-99.99,,,0.03,Acu-Link.com,2013-09-25 12:46:00,
2013-09-25 09:02:00,74.5,74.2,29.65,West,270,8.9,-999.0,99,-99.99,,,0.03,Acu-Link.com,2013-09-25 13:02:00,
2013-09-25 09:17:00,74.8,74.5,29.65,North,0,5.3,-999.0,99,-99.99,,,0.03,Acu-Link.com,2013-09-25 13:17:00,
2013-09-25 09:32:00,73.8,73.5,29.67,SW,225,3.7,-999.0,99,-99.99,,,0.03,Acu-Link.com,2013-09-25 13:32:00,
2013-09-25 09:47:00,72.9,72.6,29.67,WSW,247,6.8,-999.0,99,-99.99,,,0.10,Acu-Link.com,2013-09-25 13:47:00,
2013-09-25 10:02:00,72.5,72.2,29.67,SW,225,4.7,-999.0,99,-99.99,,,0.12,Acu-Link.com,2013-09-25 14:02:00,
2013-09-25 10:18:00,72.5,72.2,29.66,West,270,3.2,-999.0,99,-99.99,,,0.14,Acu-Link.com,2013-09-25 14:18:00,
2013-09-25 10:33:00,73.0,72.7,29.63,West,270,2.7,-999.0,99,-99.99,,,0.17,Acu-Link.com,2013-09-25 14:33:00,
2013-09-25 10:48:00,75.4,74.5,29.64,NNW,337,2.2,-999.0,97,-99.99,,,0.18,Acu-Link.com,2013-09-25 14:48:00,
2013-09-25 11:03:00,75.9,73.7,29.63,ENE,67,5.3,-999.0,93,-99.99,,,0.18,Acu-Link.com,2013-09-25 15:03:00,
2013-09-25 11:19:00,75.4,73.2,29.63,NNW,337,6.3,-999.0,93,-99.99,,,0.18,Acu-Link.com,2013-09-25 15:19:00,
2013-09-25 11:34:00,75.0,73.2,29.62,WNW,292,5.3,-999.0,94,-99.99,,,0.18,Acu-Link.com,2013-09-25 15:34:00,
2013-09-25 11:49:00,75.6,73.1,29.61,NW,315,2.7,-999.0,92,-99.99,,,0.18,Acu-Link.com,2013-09-25 15:49:00,
2013-09-25 12:04:00,75.2,72.7,29.62,SW,225,3.7,-999.0,92,-99.99,,,0.18,Acu-Link.com,2013-09-25 16:04:00,
2013-09-25 12:19:00,73.9,72.4,29.62,West,270,6.3,-999.0,95,-99.99,,,0.18,Acu-Link.com,2013-09-25 16:19:00,
2013-09-25 12:35:00,73.4,72.5,29.61,West,270,7.3,-999.0,97,-99.99,,,0.18,Acu-Link.com,2013-09-25 16:35:00,
2013-09-25 12:50:00,73.6,72.7,29.59,West,270,4.7,-999.0,97,-99.99,,,0.18,Acu-Link.com,2013-09-25 16:50:00,
2013-09-25 13:05:00,74.3,73.1,29.61,South,180,3.7,-999.0,96,-99.99,,,0.18,Acu-Link.com,2013-09-25 17:05:00,
2013-09-25 13:20:00,75.2,73.3,29.60,West,270,4.7,-999.0,94,-99.99,,,0.18,Acu-Link.com,2013-09-25 17:20:00,
2013-09-25 13:35:00,75.2,73.3,29.61,SSW,202,4.2,-999.0,94,-99.99,,,0.18,Acu-Link.com,2013-09-25 17:35:00,
2013-09-25 13:51:00,76.1,72.9,29.61,West,270,4.7,-999.0,90,-99.99,,,0.18,Acu-Link.com,2013-09-25 17:51:00,
2013-09-25 14:06:00,76.6,72.8,29.59,West,270,3.2,-999.0,88,-99.99,,,0.18,Acu-Link.com,2013-09-25 18:06:00,
2013-09-25 14:21:00,77.0,72.5,29.58,West,270,3.7,-999.0,86,-99.99,,,0.18,Acu-Link.com,2013-09-25 18:21:00,
2013-09-25 14:36:00,77.9,73.0,29.57,SSW,202,6.3,-999.0,85,-99.99,,,0.18,Acu-Link.com,2013-09-25 18:36:00,
2013-09-25 14:51:00,78.8,73.2,29.58,WSW,247,5.8,-999.0,83,-99.99,,,0.18,Acu-Link.com,2013-09-25 18:51:00,
2013-09-25 15:07:00,79.5,73.5,29.57,SW,225,4.7,-999.0,82,-99.99,,,0.18,Acu-Link.com,2013-09-25 19:07:00,
2013-09-25 15:22:00,80.1,74.1,29.56,West,270,4.7,-999.0,82,-99.99,,,0.18,Acu-Link.com,2013-09-25 19:22:00,
2013-09-25 15:37:00,80.6,74.2,29.57,West,270,5.8,-999.0,81,-99.99,,,0.18,Acu-Link.com,2013-09-25 19:37:00,
2013-09-25 15:52:00,81.0,74.6,29.57,NNW,337,2.7,-999.0,81,-99.99,,,0.18,Acu-Link.com,2013-09-25 19:52:00,
2013-09-25 16:08:00,81.9,74.3,29.58,NW,315,4.7,-999.0,78,-99.99,,,0.18,Acu-Link.com,2013-09-25 20:08:00,
2013-09-25 16:23:00,82.9,74.5,29.57,ENE,67,3.2,-999.0,76,-99.99,,,0.18,Acu-Link.com,2013-09-25 20:23:00,
2013-09-25 16:38:00,83.1,73.9,29.59,West,270,3.7,-999.0,74,-99.99,,,0.18,Acu-Link.com,2013-09-25 20:38:00,
2013-09-25 16:53:00,83.5,74.3,29.59,SW,225,2.2,-999.0,74,-99.99,,,0.18,Acu-Link.com,2013-09-25 20:53:00,
2013-09-25 17:08:00,82.8,74.4,29.58,West,270,4.7,-999.0,76,-99.99,,,0.18,Acu-Link.com,2013-09-25 21:08:00,
2013-09-25 17:24:00,81.7,73.8,29.58,WNW,292,4.7,-999.0,77,-99.99,,,0.18,Acu-Link.com,2013-09-25 21:24:00,
2013-09-25 17:39:00,81.9,74.3,29.58,SW,225,4.7,-999.0,78,-99.99,,,0.18,Acu-Link.com,2013-09-25 21:39:00,
2013-09-25 17:54:00,81.7,74.5,29.59,WNW,292,6.3,-999.0,79,-99.99,,,0.18,Acu-Link.com,2013-09-25 21:54:00,
2013-09-25 18:09:00,81.0,74.6,29.58,East,90,5.8,-999.0,81,-99.99,,,0.18,Acu-Link.com,2013-09-25 22:09:00,
2013-09-25 18:24:00,80.8,75.1,29.58,WNW,292,4.2,-999.0,83,-99.99,,,0.18,Acu-Link.com,2013-09-25 22:24:00,
2013-09-25 18:40:00,79.9,75.0,29.57,NE,45,2.2,-999.0,85,-99.99,,,0.18,Acu-Link.com,2013-09-25 22:40:00,
2013-09-25 18:55:00,78.8,74.2,29.57,SSW,202,2.7,-999.0,86,-99.99,,,0.18,Acu-Link.com,2013-09-25 22:55:00,
2013-09-25 19:10:00,78.3,74.4,29.58,NW,315,2.2,-999.0,88,-99.99,,,0.18,Acu-Link.com,2013-09-25 23:10:00,
2013-09-25 19:25:00,77.9,74.4,29.58,SW,225,1.1,-999.0,89,-99.99,,,0.18,Acu-Link.com,2013-09-25 23:25:00,
2013-09-25 19:40:00,77.4,74.2,29.59,SW,225,0.0,-999.0,90,-99.99,,,0.18,Acu-Link.com,2013-09-25 23:40:00,
2013-09-25 19:56:00,77.0,74.2,29.59,WNW,292,3.2,-999.0,91,-99.99,,,0.18,Acu-Link.com,2013-09-25 23:56:00,
2013-09-25 20:11:00,77.2,74.4,29.60,West,270,2.2,-999.0,91,-99.99,,,0.18,Acu-Link.com,2013-09-26 00:11:00,
2013-09-25 20:26:00,76.3,73.8,29.60,SSW,202,0.0,-999.0,92,-99.99,,,0.18,Acu-Link.com,2013-09-26 00:26:00,
2013-09-25 20:41:00,75.9,73.7,29.60,WSW,247,2.2,-999.0,93,-99.99,,,0.18,Acu-Link.com,2013-09-26 00:41:00,
2013-09-25 20:56:00,75.4,73.5,29.59,WSW,247,1.7,-999.0,94,-99.99,,,0.18,Acu-Link.com,2013-09-26 00:56:00,
2013-09-25 21:12:00,75.6,74.1,29.60,West,270,2.2,-999.0,95,-99.99,,,0.18,Acu-Link.com,2013-09-26 01:12:00,
2013-09-25 21:27:00,75.4,73.9,29.60,WNW,292,2.2,-999.0,95,-99.99,,,0.18,Acu-Link.com,2013-09-26 01:27:00,
2013-09-25 21:42:00,75.2,74.0,29.61,SW,225,1.1,-999.0,96,-99.99,,,0.18,Acu-Link.com,2013-09-26 01:42:00,
2013-09-25 21:57:00,74.5,73.6,29.61,SW,225,1.1,-999.0,97,-99.99,,,0.18,Acu-Link.com,2013-09-26 01:57:00,
2013-09-25 22:13:00,74.1,73.5,29.61,WSW,247,0.0,-999.0,98,-99.99,,,0.18,Acu-Link.com,2013-09-26 02:13:00,
2013-09-25 22:28:00,74.3,73.7,29.61,NNE,22,0.0,-999.0,98,-99.99,,,0.18,Acu-Link.com,2013-09-26 02:28:00,
2013-09-25 22:43:00,73.9,73.6,29.60,West,270,0.0,-999.0,99,-99.99,,,0.18,Acu-Link.com,2013-09-26 02:43:00,
2013-09-25 22:58:00,73.8,73.5,29.60,WSW,247,0.0,-999.0,99,-99.99,,,0.18,Acu-Link.com,2013-09-26 02:58:00,
2013-09-25 23:13:00,73.8,73.5,29.60,SW,225,0.0,-999.0,99,-99.99,,,0.18,Acu-Link.com,2013-09-26 03:13:00,
2013-09-25 23:29:00,73.4,73.1,29.60,SW,225,1.1,-999.0,99,-99.99,,,0.18,Acu-Link.com,2013-09-26 03:29:00,
2013-09-25 23:44:00,73.4,73.1,29.60,West,270,0.0,-999.0,99,-99.99,,,0.18,Acu-Link.com,2013-09-26 03:44:00,
2013-09-25 23:59:00,73.4,73.1,29.60,WSW,247,0.0,-999.0,99,-99.99,,,0.18,Acu-Link.com,2013-09-26 03:59:00,